sensor_id;sensor_type;location;lat;lon;timestamp;temperature;humidity
54272;DHT22;40184;53.362;5.216;2022-09-01T00:02:25;17.40;99.90
54272;DHT22;40184;53.362;5.216;2022-09-01T00:04:53;17.30;99.90
54272;DHT22;40184;53.362;5.216;2022-09-01T00:07:24;17.50;99.90
54272;DHT22;40184;53.362;5.216;2022-09-01T00:09:50;17.50;99.90
54272;DHT22;40184;53.362;5.216;2022-09-01T00:12:17;17.60;99.90
54272;DHT22;40184;53.362;5.216;2022-09-01T00:14:43;17.30;99.90
54272;DHT22;40184;53.362;5.216;2022-09-01T00:17:10;17.60;99.90
54272;DHT22;40184;53.362;5.216;2022-09-01T00:19:37;17.40;99.90
54272;DHT22;40184;53.362;5.216;2022-09-01T00:22:04;17.70;99.90
54272;DHT22;40184;53.362;5.216;2022-09-01T00:24:30;17.50;99.90
54272;DHT22;40184;53.362;5.216;2022-09-01T00:26:56;17.70;99.90
54272;DHT22;40184;53.362;5.216;2022-09-01T00:29:23;17.70;99.90
54272;DHT22;40184;53.362;5.216;2022-09-01T00:31:49;17.50;99.90
54272;DHT22;40184;53.362;5.216;2022-09-01T00:34:16;17.40;99.90
54272;DHT22;40184;53.362;5.216;2022-09-01T00:36:41;17.60;99.90
54272;DHT22;40184;53.362;5.216;2022-09-01T00:39:07;17.40;99.90
54272;DHT22;40184;53.362;5.216;2022-09-01T00:41:36;17.60;99.90
54272;DHT22;40184;53.362;5.216;2022-09-01T00:44:09;17.30;99.90
54272;DHT22;40184;53.362;5.216;2022-09-01T00:46:42;17.50;99.90
54272;DHT22;40184;53.362;5.216;2022-09-01T00:49:12;17.40;99.90
54272;DHT22;40184;53.362;5.216;2022-09-01T00:51:41;17.40;99.90
54272;DHT22;40184;53.362;5.216;2022-09-01T00:54:13;17.20;99.90
54272;DHT22;40184;53.362;5.216;2022-09-01T00:56:40;17.40;99.90
54272;DHT22;40184;53.362;5.216;2022-09-01T00:59:07;17.50;99.90
54272;DHT22;40184;53.362;5.216;2022-09-01T01:01:34;17.40;99.90
54272;DHT22;40184;53.362;5.216;2022-09-01T01:04:03;17.40;99.90
54272;DHT22;40184;53.362;5.216;2022-09-01T01:06:30;17.20;99.90
54272;DHT22;40184;53.362;5.216;2022-09-01T01:08:58;17.30;99.90
54272;DHT22;40184;53.362;5.216;2022-09-01T01:11:30;17.00;99.90
54272;DHT22;40184;53.362;5.216;2022-09-01T01:14:06;17.10;99.90
54272;DHT22;40184;53.362;5.216;2022-09-01T01:16:39;17.30;99.90
54272;DHT22;40184;53.362;5.216;2022-09-01T01:22:13;17.00;99.90
54272;DHT22;40184;53.362;5.216;2022-09-01T01:24:59;17.10;99.90
54272;DHT22;40184;53.362;5.216;2022-09-01T01:27:31;16.90;99.90
54272;DHT22;40184;53.362;5.216;2022-09-01T01:29:56;17.20;99.90
54272;DHT22;40184;53.362;5.216;2022-09-01T01:32:22;17.20;99.90
54272;DHT22;40184;53.362;5.216;2022-09-01T01:34:48;17.10;99.90
54272;DHT22;40184;53.362;5.216;2022-09-01T01:37:13;16.90;99.90
54272;DHT22;40184;53.362;5.216;2022-09-01T01:39:40;16.80;99.90
54272;DHT22;40184;53.362;5.216;2022-09-01T01:42:08;17.00;99.90
54272;DHT22;40184;53.362;5.216;2022-09-01T01:44:35;17.10;99.90
54272;DHT22;40184;53.362;5.216;2022-09-01T01:47:04;16.90;99.90
54272;DHT22;40184;53.362;5.216;2022-09-01T01:49:35;16.90;99.90
54272;DHT22;40184;53.362;5.216;2022-09-01T01:52:01;16.90;99.90
54272;DHT22;40184;53.362;5.216;2022-09-01T01:54:28;17.10;99.90
54272;DHT22;40184;53.362;5.216;2022-09-01T01:56:56;16.80;99.90
54272;DHT22;40184;53.362;5.216;2022-09-01T01:59:23;16.80;99.90
54272;DHT22;40184;53.362;5.216;2022-09-01T02:01:49;16.80;99.90
54272;DHT22;40184;53.362;5.216;2022-09-01T02:04:16;16.90;99.90
54272;DHT22;40184;53.362;5.216;2022-09-01T02:06:44;16.80;99.90
54272;DHT22;40184;53.362;5.216;2022-09-01T02:09:11;17.10;99.90
54272;DHT22;40184;53.362;5.216;2022-09-01T02:11:37;16.90;99.90
54272;DHT22;40184;53.362;5.216;2022-09-01T02:14:04;16.70;99.90
54272;DHT22;40184;53.362;5.216;2022-09-01T02:16:32;16.90;99.90
54272;DHT22;40184;53.362;5.216;2022-09-01T02:18:59;16.90;99.90
54272;DHT22;40184;53.362;5.216;2022-09-01T02:21:26;16.70;99.90
54272;DHT22;40184;53.362;5.216;2022-09-01T02:24:04;16.60;99.90
54272;DHT22;40184;53.362;5.216;2022-09-01T02:26:34;16.80;99.90
54272;DHT22;40184;53.362;5.216;2022-09-01T02:29:08;16.80;99.90
54272;DHT22;40184;53.362;5.216;2022-09-01T02:31:35;16.70;99.90
54272;DHT22;40184;53.362;5.216;2022-09-01T02:34:05;16.70;99.90
54272;DHT22;40184;53.362;5.216;2022-09-01T02:36:36;16.70;99.90
54272;DHT22;40184;53.362;5.216;2022-09-01T02:39:13;16.70;99.90
54272;DHT22;40184;53.362;5.216;2022-09-01T02:41:39;16.40;99.90
54272;DHT22;40184;53.362;5.216;2022-09-01T02:44:05;16.70;99.90
54272;DHT22;40184;53.362;5.216;2022-09-01T02:46:40;16.50;99.90
54272;DHT22;40184;53.362;5.216;2022-09-01T02:49:19;16.30;99.90
54272;DHT22;40184;53.362;5.216;2022-09-01T02:51:50;16.20;99.90
54272;DHT22;40184;53.362;5.216;2022-09-01T02:54:28;16.40;99.90
54272;DHT22;40184;53.362;5.216;2022-09-01T02:56:55;16.40;99.90
54272;DHT22;40184;53.362;5.216;2022-09-01T02:59:23;16.50;99.90
54272;DHT22;40184;53.362;5.216;2022-09-01T03:01:52;16.20;99.90
54272;DHT22;40184;53.362;5.216;2022-09-01T03:04:19;16.40;99.90
54272;DHT22;40184;53.362;5.216;2022-09-01T03:06:47;16.10;99.90
54272;DHT22;40184;53.362;5.216;2022-09-01T03:09:16;16.40;99.90
54272;DHT22;40184;53.362;5.216;2022-09-01T03:11:45;16.00;99.90
54272;DHT22;40184;53.362;5.216;2022-09-01T03:14:12;16.30;99.90
54272;DHT22;40184;53.362;5.216;2022-09-01T03:16:38;15.90;99.90
54272;DHT22;40184;53.362;5.216;2022-09-01T03:19:06;16.10;99.90
54272;DHT22;40184;53.362;5.216;2022-09-01T03:21:35;16.20;99.90
54272;DHT22;40184;53.362;5.216;2022-09-01T03:24:02;16.20;99.90
54272;DHT22;40184;53.362;5.216;2022-09-01T03:26:29;15.90;99.90
54272;DHT22;40184;53.362;5.216;2022-09-01T03:28:55;16.00;99.90
54272;DHT22;40184;53.362;5.216;2022-09-01T03:31:21;16.00;99.90
54272;DHT22;40184;53.362;5.216;2022-09-01T03:33:47;16.00;99.90
54272;DHT22;40184;53.362;5.216;2022-09-01T03:36:12;15.90;99.90
54272;DHT22;40184;53.362;5.216;2022-09-01T03:38:48;16.20;99.90
54272;DHT22;40184;53.362;5.216;2022-09-01T03:41:15;16.20;99.90
54272;DHT22;40184;53.362;5.216;2022-09-01T03:43:43;16.10;99.90
54272;DHT22;40184;53.362;5.216;2022-09-01T03:46:09;16.10;99.90
54272;DHT22;40184;53.362;5.216;2022-09-01T03:48:37;15.90;99.90
54272;DHT22;40184;53.362;5.216;2022-09-01T03:51:03;15.90;99.90
54272;DHT22;40184;53.362;5.216;2022-09-01T03:53:32;16.00;99.90
54272;DHT22;40184;53.362;5.216;2022-09-01T03:55:59;16.20;99.90
54272;DHT22;40184;53.362;5.216;2022-09-01T03:58:26;16.00;99.90
54272;DHT22;40184;53.362;5.216;2022-09-01T04:00:55;16.20;99.90
54272;DHT22;40184;53.362;5.216;2022-09-01T04:03:23;16.00;99.90
54272;DHT22;40184;53.362;5.216;2022-09-01T04:05:51;16.00;99.90
54272;DHT22;40184;53.362;5.216;2022-09-01T04:08:18;16.20;99.90
54272;DHT22;40184;53.362;5.216;2022-09-01T04:10:47;16.20;99.90
54272;DHT22;40184;53.362;5.216;2022-09-01T04:13:19;16.00;99.90
54272;DHT22;40184;53.362;5.216;2022-09-01T04:15:46;16.30;99.90
54272;DHT22;40184;53.362;5.216;2022-09-01T04:18:13;16.30;99.90
54272;DHT22;40184;53.362;5.216;2022-09-01T04:20:47;16.30;99.90
54272;DHT22;40184;53.362;5.216;2022-09-01T04:23:25;16.00;99.90
54272;DHT22;40184;53.362;5.216;2022-09-01T04:25:57;16.10;99.90
54272;DHT22;40184;53.362;5.216;2022-09-01T04:28:31;16.40;99.90
54272;DHT22;40184;53.362;5.216;2022-09-01T04:31:02;16.40;99.90
54272;DHT22;40184;53.362;5.216;2022-09-01T04:33:31;16.00;99.90
54272;DHT22;40184;53.362;5.216;2022-09-01T04:36:02;16.30;99.90
54272;DHT22;40184;53.362;5.216;2022-09-01T04:38:28;16.00;99.90
54272;DHT22;40184;53.362;5.216;2022-09-01T04:40:54;16.10;99.90
54272;DHT22;40184;53.362;5.216;2022-09-01T04:43:22;15.90;99.90
54272;DHT22;40184;53.362;5.216;2022-09-01T04:45:48;16.30;99.90
54272;DHT22;40184;53.362;5.216;2022-09-01T04:48:17;16.00;99.90
54272;DHT22;40184;53.362;5.216;2022-09-01T04:50:44;15.90;99.90
54272;DHT22;40184;53.362;5.216;2022-09-01T04:53:10;15.90;99.90
54272;DHT22;40184;53.362;5.216;2022-09-01T04:55:40;16.00;99.90
54272;DHT22;40184;53.362;5.216;2022-09-01T04:58:10;16.10;99.90
54272;DHT22;40184;53.362;5.216;2022-09-01T05:00:43;15.80;99.90
54272;DHT22;40184;53.362;5.216;2022-09-01T05:03:10;15.80;99.90
54272;DHT22;40184;53.362;5.216;2022-09-01T05:05:39;16.10;99.90
54272;DHT22;40184;53.362;5.216;2022-09-01T05:08:11;15.70;99.90
54272;DHT22;40184;53.362;5.216;2022-09-01T05:10:41;15.70;99.90
54272;DHT22;40184;53.362;5.216;2022-09-01T05:13:09;15.90;99.90
54272;DHT22;40184;53.362;5.216;2022-09-01T05:15:39;15.60;99.90
54272;DHT22;40184;53.362;5.216;2022-09-01T05:18:15;16.00;99.90
54272;DHT22;40184;53.362;5.216;2022-09-01T05:20:41;15.90;99.90
54272;DHT22;40184;53.362;5.216;2022-09-01T05:23:09;16.00;99.90
54272;DHT22;40184;53.362;5.216;2022-09-01T05:25:42;15.80;99.90
54272;DHT22;40184;53.362;5.216;2022-09-01T05:28:09;15.70;99.90
54272;DHT22;40184;53.362;5.216;2022-09-01T05:30:39;15.70;99.90
54272;DHT22;40184;53.362;5.216;2022-09-01T05:33:06;16.10;99.90
54272;DHT22;40184;53.362;5.216;2022-09-01T05:35:38;15.90;99.90
54272;DHT22;40184;53.362;5.216;2022-09-01T05:38:06;15.90;99.90
54272;DHT22;40184;53.362;5.216;2022-09-01T05:40:41;16.00;99.90
54272;DHT22;40184;53.362;5.216;2022-09-01T05:43:10;16.30;99.90
54272;DHT22;40184;53.362;5.216;2022-09-01T05:45:38;16.00;99.90
54272;DHT22;40184;53.362;5.216;2022-09-01T05:48:07;15.90;99.90
54272;DHT22;40184;53.362;5.216;2022-09-01T05:50:34;16.00;99.90
54272;DHT22;40184;53.362;5.216;2022-09-01T05:53:00;16.10;99.90
54272;DHT22;40184;53.362;5.216;2022-09-01T05:55:27;16.00;99.90
54272;DHT22;40184;53.362;5.216;2022-09-01T05:57:52;16.40;99.90
54272;DHT22;40184;53.362;5.216;2022-09-01T06:00:19;16.30;99.90
54272;DHT22;40184;53.362;5.216;2022-09-01T06:02:45;16.30;99.90
54272;DHT22;40184;53.362;5.216;2022-09-01T06:05:11;16.70;99.90
54272;DHT22;40184;53.362;5.216;2022-09-01T06:07:39;16.40;99.90
54272;DHT22;40184;53.362;5.216;2022-09-01T06:10:07;16.50;99.90
54272;DHT22;40184;53.362;5.216;2022-09-01T06:12:33;16.60;99.90
54272;DHT22;40184;53.362;5.216;2022-09-01T06:14:59;16.90;99.90
54272;DHT22;40184;53.362;5.216;2022-09-01T06:17:26;16.60;99.90
54272;DHT22;40184;53.362;5.216;2022-09-01T06:19:54;16.70;99.90
54272;DHT22;40184;53.362;5.216;2022-09-01T06:22:21;17.10;99.90
54272;DHT22;40184;53.362;5.216;2022-09-01T06:24:49;17.10;99.90
54272;DHT22;40184;53.362;5.216;2022-09-01T06:27:17;17.10;99.90
54272;DHT22;40184;53.362;5.216;2022-09-01T06:29:45;17.00;99.90
54272;DHT22;40184;53.362;5.216;2022-09-01T06:32:16;17.10;99.90
54272;DHT22;40184;53.362;5.216;2022-09-01T06:34:42;17.40;99.90
54272;DHT22;40184;53.362;5.216;2022-09-01T06:37:16;17.60;99.90
54272;DHT22;40184;53.362;5.216;2022-09-01T06:39:49;17.70;99.90
54272;DHT22;40184;53.362;5.216;2022-09-01T06:42:15;17.70;99.90
54272;DHT22;40184;53.362;5.216;2022-09-01T06:44:41;17.80;99.90
54272;DHT22;40184;53.362;5.216;2022-09-01T06:47:07;17.80;99.90
54272;DHT22;40184;53.362;5.216;2022-09-01T06:49:33;17.60;99.90
54272;DHT22;40184;53.362;5.216;2022-09-01T06:52:03;18.00;99.90
54272;DHT22;40184;53.362;5.216;2022-09-01T06:54:31;17.90;99.90
54272;DHT22;40184;53.362;5.216;2022-09-01T06:56:58;17.90;99.90
54272;DHT22;40184;53.362;5.216;2022-09-01T06:59:27;18.10;99.90
54272;DHT22;40184;53.362;5.216;2022-09-01T07:01:56;18.30;99.90
54272;DHT22;40184;53.362;5.216;2022-09-01T07:04:28;18.00;99.90
54272;DHT22;40184;53.362;5.216;2022-09-01T07:06:55;18.50;99.90
54272;DHT22;40184;53.362;5.216;2022-09-01T07:09:22;18.30;99.90
54272;DHT22;40184;53.362;5.216;2022-09-01T07:11:48;18.50;99.90
54272;DHT22;40184;53.362;5.216;2022-09-01T07:14:14;18.50;99.90
54272;DHT22;40184;53.362;5.216;2022-09-01T07:16:42;18.50;99.90
54272;DHT22;40184;53.362;5.216;2022-09-01T07:19:09;18.40;99.90
54272;DHT22;40184;53.362;5.216;2022-09-01T07:21:37;18.40;99.90
54272;DHT22;40184;53.362;5.216;2022-09-01T07:24:03;18.70;99.90
54272;DHT22;40184;53.362;5.216;2022-09-01T07:26:31;18.20;99.90
54272;DHT22;40184;53.362;5.216;2022-09-01T07:28:59;18.20;99.90
54272;DHT22;40184;53.362;5.216;2022-09-01T07:31:28;18.60;99.90
54272;DHT22;40184;53.362;5.216;2022-09-01T07:33:58;18.50;99.90
54272;DHT22;40184;53.362;5.216;2022-09-01T07:36:24;18.60;99.90
54272;DHT22;40184;53.362;5.216;2022-09-01T07:38:51;18.50;99.90
54272;DHT22;40184;53.362;5.216;2022-09-01T07:41:23;18.70;99.90
54272;DHT22;40184;53.362;5.216;2022-09-01T07:43:50;18.40;99.90
54272;DHT22;40184;53.362;5.216;2022-09-01T07:46:21;18.80;99.90
54272;DHT22;40184;53.362;5.216;2022-09-01T07:48:48;18.60;99.90
54272;DHT22;40184;53.362;5.216;2022-09-01T07:51:16;18.70;99.90
54272;DHT22;40184;53.362;5.216;2022-09-01T07:53:45;19.30;99.90
54272;DHT22;40184;53.362;5.216;2022-09-01T07:56:13;19.20;99.90
54272;DHT22;40184;53.362;5.216;2022-09-01T07:58:40;19.20;99.90
54272;DHT22;40184;53.362;5.216;2022-09-01T08:01:11;19.30;99.90
54272;DHT22;40184;53.362;5.216;2022-09-01T08:03:39;19.20;99.90
54272;DHT22;40184;53.362;5.216;2022-09-01T08:06:08;19.00;99.90
54272;DHT22;40184;53.362;5.216;2022-09-01T08:08:35;19.30;99.90
54272;DHT22;40184;53.362;5.216;2022-09-01T08:11:01;19.30;99.90
54272;DHT22;40184;53.362;5.216;2022-09-01T08:13:27;19.60;99.90
54272;DHT22;40184;53.362;5.216;2022-09-01T08:15:53;19.90;99.90
54272;DHT22;40184;53.362;5.216;2022-09-01T08:18:19;19.80;99.90
54272;DHT22;40184;53.362;5.216;2022-09-01T08:20:44;20.00;99.90
54272;DHT22;40184;53.362;5.216;2022-09-01T08:23:14;20.00;99.90
54272;DHT22;40184;53.362;5.216;2022-09-01T08:25:41;20.00;99.90
54272;DHT22;40184;53.362;5.216;2022-09-01T08:28:07;20.20;99.90
54272;DHT22;40184;53.362;5.216;2022-09-01T08:30:33;20.10;99.90
54272;DHT22;40184;53.362;5.216;2022-09-01T08:33:00;20.20;99.90
54272;DHT22;40184;53.362;5.216;2022-09-01T08:35:26;20.40;99.90
54272;DHT22;40184;53.362;5.216;2022-09-01T08:37:55;20.50;99.90
54272;DHT22;40184;53.362;5.216;2022-09-01T08:40:21;20.60;99.90
54272;DHT22;40184;53.362;5.216;2022-09-01T08:45:53;20.20;99.90
54272;DHT22;40184;53.362;5.216;2022-09-01T08:50:54;20.40;99.90
54272;DHT22;40184;53.362;5.216;2022-09-01T08:53:30;20.30;99.90
54272;DHT22;40184;53.362;5.216;2022-09-01T08:55:58;20.40;99.90
54272;DHT22;40184;53.362;5.216;2022-09-01T08:58:25;20.70;99.90
54272;DHT22;40184;53.362;5.216;2022-09-01T09:01:01;20.50;99.90
54272;DHT22;40184;53.362;5.216;2022-09-01T09:08:04;20.60;99.90
54272;DHT22;40184;53.362;5.216;2022-09-01T09:10:21;20.40;99.90
54272;DHT22;40184;53.362;5.216;2022-09-01T09:16:03;20.30;99.90
54272;DHT22;40184;53.362;5.216;2022-09-01T09:18:52;20.30;99.90
54272;DHT22;40184;53.362;5.216;2022-09-01T09:21:36;20.40;99.90
54272;DHT22;40184;53.362;5.216;2022-09-01T09:24:25;20.60;99.90
54272;DHT22;40184;53.362;5.216;2022-09-01T09:26:55;20.60;99.90
54272;DHT22;40184;53.362;5.216;2022-09-01T09:29:21;20.70;99.90
54272;DHT22;40184;53.362;5.216;2022-09-01T09:31:48;20.70;99.90
54272;DHT22;40184;53.362;5.216;2022-09-01T09:34:30;20.90;99.90
54272;DHT22;40184;53.362;5.216;2022-09-01T09:40:08;21.10;99.90
54272;DHT22;40184;53.362;5.216;2022-09-01T09:42:38;21.40;99.90
54272;DHT22;40184;53.362;5.216;2022-09-01T09:45:20;21.20;99.90
54272;DHT22;40184;53.362;5.216;2022-09-01T09:47:46;21.10;99.90
54272;DHT22;40184;53.362;5.216;2022-09-01T09:50:17;21.20;99.90
54272;DHT22;40184;53.362;5.216;2022-09-01T09:52:43;21.10;99.90
54272;DHT22;40184;53.362;5.216;2022-09-01T09:55:31;21.00;99.90
54272;DHT22;40184;53.362;5.216;2022-09-01T09:58:00;20.80;99.90
54272;DHT22;40184;53.362;5.216;2022-09-01T10:00:33;20.70;99.90
54272;DHT22;40184;53.362;5.216;2022-09-01T10:03:05;20.70;99.90
54272;DHT22;40184;53.362;5.216;2022-09-01T10:05:45;20.80;99.90
54272;DHT22;40184;53.362;5.216;2022-09-01T10:08:43;21.00;99.90
54272;DHT22;40184;53.362;5.216;2022-09-01T10:11:37;21.30;99.90
54272;DHT22;40184;53.362;5.216;2022-09-01T10:14:13;21.30;99.90
54272;DHT22;40184;53.362;5.216;2022-09-01T10:16:40;21.30;99.90
54272;DHT22;40184;53.362;5.216;2022-09-01T10:19:11;21.50;99.90
54272;DHT22;40184;53.362;5.216;2022-09-01T10:21:40;21.40;99.90
54272;DHT22;40184;53.362;5.216;2022-09-01T10:26:38;21.50;99.90
54272;DHT22;40184;53.362;5.216;2022-09-01T10:32:25;21.60;99.90
54272;DHT22;40184;53.362;5.216;2022-09-01T10:34:53;21.40;99.90
54272;DHT22;40184;53.362;5.216;2022-09-01T10:37:20;21.50;99.90
54272;DHT22;40184;53.362;5.216;2022-09-01T10:40:13;21.50;99.90
54272;DHT22;40184;53.362;5.216;2022-09-01T10:42:42;21.60;99.90
54272;DHT22;40184;53.362;5.216;2022-09-01T10:45:28;21.70;99.90
54272;DHT22;40184;53.362;5.216;2022-09-01T10:47:55;21.70;99.90
54272;DHT22;40184;53.362;5.216;2022-09-01T10:50:30;21.80;99.90
54272;DHT22;40184;53.362;5.216;2022-09-01T10:53:02;21.90;99.90
54272;DHT22;40184;53.362;5.216;2022-09-01T10:55:39;22.10;99.90
54272;DHT22;40184;53.362;5.216;2022-09-01T11:00:53;22.10;99.90
54272;DHT22;40184;53.362;5.216;2022-09-01T11:08:44;22.10;99.90
54272;DHT22;40184;53.362;5.216;2022-09-01T11:11:18;22.10;99.90
54272;DHT22;40184;53.362;5.216;2022-09-01T11:13:48;22.10;99.90
54272;DHT22;40184;53.362;5.216;2022-09-01T11:18:55;22.20;99.90
54272;DHT22;40184;53.362;5.216;2022-09-01T11:21:41;22.20;99.90
54272;DHT22;40184;53.362;5.216;2022-09-01T11:27:05;22.30;99.90
54272;DHT22;40184;53.362;5.216;2022-09-01T11:29:50;22.30;99.90
54272;DHT22;40184;53.362;5.216;2022-09-01T11:32:17;22.30;99.90
54272;DHT22;40184;53.362;5.216;2022-09-01T11:34:45;22.50;99.90
54272;DHT22;40184;53.362;5.216;2022-09-01T11:37:15;22.50;99.90
54272;DHT22;40184;53.362;5.216;2022-09-01T11:39:50;22.50;99.90
54272;DHT22;40184;53.362;5.216;2022-09-01T11:42:24;22.40;99.90
54272;DHT22;40184;53.362;5.216;2022-09-01T11:45:13;22.50;99.90
54272;DHT22;40184;53.362;5.216;2022-09-01T11:47:43;22.50;99.90
54272;DHT22;40184;53.362;5.216;2022-09-01T11:50:28;22.60;99.90
54272;DHT22;40184;53.362;5.216;2022-09-01T11:55:30;22.60;99.90
54272;DHT22;40184;53.362;5.216;2022-09-01T11:57:57;22.70;99.90
54272;DHT22;40184;53.362;5.216;2022-09-01T12:00:34;22.90;99.90
54272;DHT22;40184;53.362;5.216;2022-09-01T12:05:51;22.90;99.90
54272;DHT22;40184;53.362;5.216;2022-09-01T12:08:19;22.80;99.90
54272;DHT22;40184;53.362;5.216;2022-09-01T12:10:46;22.90;99.90
54272;DHT22;40184;53.362;5.216;2022-09-01T12:13:23;23.10;99.90
54272;DHT22;40184;53.362;5.216;2022-09-01T12:16:02;23.10;99.90
54272;DHT22;40184;53.362;5.216;2022-09-01T12:18:34;23.20;99.90
54272;DHT22;40184;53.362;5.216;2022-09-01T12:21:02;23.30;99.90
54272;DHT22;40184;53.362;5.216;2022-09-01T12:23:30;23.30;99.90
54272;DHT22;40184;53.362;5.216;2022-09-01T12:28:31;23.30;99.90
54272;DHT22;40184;53.362;5.216;2022-09-01T12:31:04;23.30;99.90
54272;DHT22;40184;53.362;5.216;2022-09-01T12:33:31;23.50;99.90
54272;DHT22;40184;53.362;5.216;2022-09-01T12:36:35;23.50;99.90
54272;DHT22;40184;53.362;5.216;2022-09-01T12:41:43;23.60;99.90
54272;DHT22;40184;53.362;5.216;2022-09-01T12:44:49;23.50;99.90
54272;DHT22;40184;53.362;5.216;2022-09-01T12:52:50;23.60;99.90
54272;DHT22;40184;53.362;5.216;2022-09-01T12:55:22;23.70;99.90
54272;DHT22;40184;53.362;5.216;2022-09-01T12:57:54;23.70;99.90
54272;DHT22;40184;53.362;5.216;2022-09-01T13:00:23;23.80;99.90
54272;DHT22;40184;53.362;5.216;2022-09-01T13:03:04;23.90;99.90
54272;DHT22;40184;53.362;5.216;2022-09-01T13:05:41;24.00;99.50
54272;DHT22;40184;53.362;5.216;2022-09-01T13:10:46;24.20;99.10
54272;DHT22;40184;53.362;5.216;2022-09-01T13:13:13;24.40;98.90
54272;DHT22;40184;53.362;5.216;2022-09-01T13:15:44;24.70;98.50
54272;DHT22;40184;53.362;5.216;2022-09-01T13:18:12;25.10;98.60
54272;DHT22;40184;53.362;5.216;2022-09-01T13:20:38;25.20;97.90
54272;DHT22;40184;53.362;5.216;2022-09-01T13:23:04;25.60;97.70
54272;DHT22;40184;53.362;5.216;2022-09-01T13:25:30;25.70;96.80
54272;DHT22;40184;53.362;5.216;2022-09-01T13:27:55;25.90;96.80
54272;DHT22;40184;53.362;5.216;2022-09-01T13:30:24;25.80;96.80
54272;DHT22;40184;53.362;5.216;2022-09-01T13:32:53;26.20;96.70
54272;DHT22;40184;53.362;5.216;2022-09-01T13:35:20;26.10;96.10
54272;DHT22;40184;53.362;5.216;2022-09-01T13:37:47;25.60;95.70
54272;DHT22;40184;53.362;5.216;2022-09-01T13:40:15;25.60;95.90
54272;DHT22;40184;53.362;5.216;2022-09-01T13:42:51;25.00;96.50
54272;DHT22;40184;53.362;5.216;2022-09-01T13:45:20;25.50;95.10
54272;DHT22;40184;53.362;5.216;2022-09-01T13:47:47;25.90;95.80
54272;DHT22;40184;53.362;5.216;2022-09-01T13:50:15;26.30;95.70
54272;DHT22;40184;53.362;5.216;2022-09-01T13:52:45;26.40;95.90
54272;DHT22;40184;53.362;5.216;2022-09-01T13:55:14;26.60;95.50
54272;DHT22;40184;53.362;5.216;2022-09-01T13:57:40;26.90;95.20
54272;DHT22;40184;53.362;5.216;2022-09-01T14:00:12;27.20;94.70
54272;DHT22;40184;53.362;5.216;2022-09-01T14:02:45;27.20;94.30
54272;DHT22;40184;53.362;5.216;2022-09-01T14:05:32;27.40;94.30
54272;DHT22;40184;53.362;5.216;2022-09-01T14:07:59;27.50;94.50
54272;DHT22;40184;53.362;5.216;2022-09-01T14:10:27;27.30;94.70
54272;DHT22;40184;53.362;5.216;2022-09-01T14:12:53;27.20;94.70
54272;DHT22;40184;53.362;5.216;2022-09-01T14:15:19;27.20;93.50
54272;DHT22;40184;53.362;5.216;2022-09-01T14:17:48;27.00;94.30
54272;DHT22;40184;53.362;5.216;2022-09-01T14:20:20;27.10;94.10
54272;DHT22;40184;53.362;5.216;2022-09-01T14:22:47;27.00;94.10
54272;DHT22;40184;53.362;5.216;2022-09-01T14:25:15;26.50;94.60
54272;DHT22;40184;53.362;5.216;2022-09-01T14:27:41;26.00;94.10
54272;DHT22;40184;53.362;5.216;2022-09-01T14:30:10;25.30;95.50
54272;DHT22;40184;53.362;5.216;2022-09-01T14:32:36;24.70;95.00
54272;DHT22;40184;53.362;5.216;2022-09-01T14:35:02;23.90;95.50
54272;DHT22;40184;53.362;5.216;2022-09-01T14:37:28;23.40;96.20
54272;DHT22;40184;53.362;5.216;2022-09-01T14:39:55;23.10;96.60
54272;DHT22;40184;53.362;5.216;2022-09-01T14:42:21;22.80;97.70
54272;DHT22;40184;53.362;5.216;2022-09-01T14:44:50;22.70;96.50
54272;DHT22;40184;53.362;5.216;2022-09-01T14:47:16;22.80;97.10
54272;DHT22;40184;53.362;5.216;2022-09-01T14:49:43;23.20;97.80
54272;DHT22;40184;53.362;5.216;2022-09-01T14:52:09;23.60;97.70
54272;DHT22;40184;53.362;5.216;2022-09-01T14:54:37;23.40;96.70
54272;DHT22;40184;53.362;5.216;2022-09-01T14:57:03;23.00;97.00
54272;DHT22;40184;53.362;5.216;2022-09-01T14:59:29;22.60;98.40
54272;DHT22;40184;53.362;5.216;2022-09-01T15:01:54;22.30;98.00
54272;DHT22;40184;53.362;5.216;2022-09-01T15:04:20;22.10;97.00
54272;DHT22;40184;53.362;5.216;2022-09-01T15:06:46;22.00;98.80
54272;DHT22;40184;53.362;5.216;2022-09-01T15:09:12;21.90;99.50
54272;DHT22;40184;53.362;5.216;2022-09-01T15:11:37;21.80;99.80
54272;DHT22;40184;53.362;5.216;2022-09-01T15:14:04;21.70;99.90
54272;DHT22;40184;53.362;5.216;2022-09-01T15:16:30;21.70;99.60
54272;DHT22;40184;53.362;5.216;2022-09-01T15:18:59;21.70;99.00
54272;DHT22;40184;53.362;5.216;2022-09-01T15:21:29;21.70;98.80
54272;DHT22;40184;53.362;5.216;2022-09-01T15:23:57;21.70;98.90
54272;DHT22;40184;53.362;5.216;2022-09-01T15:26:23;21.70;98.40
54272;DHT22;40184;53.362;5.216;2022-09-01T15:28:49;21.60;98.40
54272;DHT22;40184;53.362;5.216;2022-09-01T15:31:17;21.70;98.60
54272;DHT22;40184;53.362;5.216;2022-09-01T15:33:43;21.60;99.10
54272;DHT22;40184;53.362;5.216;2022-09-01T15:36:18;21.70;98.90
54272;DHT22;40184;53.362;5.216;2022-09-01T15:38:44;21.80;98.50
54272;DHT22;40184;53.362;5.216;2022-09-01T15:41:22;21.70;98.20
54272;DHT22;40184;53.362;5.216;2022-09-01T15:43:48;21.60;97.60
54272;DHT22;40184;53.362;5.216;2022-09-01T15:46:15;21.50;97.40
54272;DHT22;40184;53.362;5.216;2022-09-01T15:48:41;21.50;97.70
54272;DHT22;40184;53.362;5.216;2022-09-01T15:53:52;21.40;98.00
54272;DHT22;40184;53.362;5.216;2022-09-01T15:56:18;21.30;98.50
54272;DHT22;40184;53.362;5.216;2022-09-01T15:58:48;21.40;98.30
54272;DHT22;40184;53.362;5.216;2022-09-01T16:01:16;21.40;98.10
54272;DHT22;40184;53.362;5.216;2022-09-01T16:03:41;21.50;98.00
54272;DHT22;40184;53.362;5.216;2022-09-01T16:06:07;21.40;98.30
54272;DHT22;40184;53.362;5.216;2022-09-01T16:08:34;21.30;98.10
54272;DHT22;40184;53.362;5.216;2022-09-01T16:11:00;21.30;98.10
54272;DHT22;40184;53.362;5.216;2022-09-01T16:13:35;21.40;96.90
54272;DHT22;40184;53.362;5.216;2022-09-01T16:16:24;21.40;96.70
54272;DHT22;40184;53.362;5.216;2022-09-01T16:22:00;21.30;96.80
54272;DHT22;40184;53.362;5.216;2022-09-01T16:24:27;21.20;96.70
54272;DHT22;40184;53.362;5.216;2022-09-01T16:26:55;21.10;97.50
54272;DHT22;40184;53.362;5.216;2022-09-01T16:29:37;21.20;97.60
54272;DHT22;40184;53.362;5.216;2022-09-01T16:32:04;21.20;96.80
54272;DHT22;40184;53.362;5.216;2022-09-01T16:34:30;21.10;97.70
54272;DHT22;40184;53.362;5.216;2022-09-01T16:37:27;21.00;98.20
54272;DHT22;40184;53.362;5.216;2022-09-01T16:45:17;21.10;98.50
54272;DHT22;40184;53.362;5.216;2022-09-01T16:47:58;21.00;98.80
54272;DHT22;40184;53.362;5.216;2022-09-01T16:56:21;20.90;98.10
54272;DHT22;40184;53.362;5.216;2022-09-01T17:04:31;20.80;98.30
54272;DHT22;40184;53.362;5.216;2022-09-01T17:07:25;20.70;98.40